-1){ existingHash = window.location.href.substr(window.location.href.indexOf("#")); } ctx.existingServerFilterHash = existingHash; if (ctx.existingServerFilterHash.indexOf("ServerFilter=") == 1) { ctx.existingServerFilterHash = ctx.existingServerFilterHash.replace(/-/g, '&').replace(/&&/g, '-'); var serverFilterRootFolder = GetUrlKeyValue("RootFolder", true,ctx.existingServerFilterHash); var currentRootFolder = GetUrlKeyValue("RootFolder", true); if("" == serverFilterRootFolder && "" != currentRootFolder) { ctx.existingServerFilterHash += "&RootFolder=" + currentRootFolder; } window.location.hash = ''; window.location.search = '?' + ctx.existingServerFilterHash.substr("ServerFilter=".length + 1); } ctx.listBaseType = 1; ctx.NavigateForFormsPages = false; ctx.listTemplate = "101"; ctx.listName = "{8543F6A4-CA22-4496-BA0D-B65021EBE506}"; ctx.view = "{41897954-71D0-4F15-A0DA-2FC0F2E87082}"; ctx.listUrlDir = "/sites/cob/RoadFile"; ctx.HttpPath = "https://www.sccgov.org/sites/cob/_vti_bin/owssvr.dll?CS=65001"; ctx.HttpRoot = "https://www.sccgov.org/sites/cob"; ctx.imagesPath = "/_layouts/images/"; ctx.PortalUrl = ""; ctx.SendToLocationName = ""; ctx.SendToLocationUrl = ""; ctx.RecycleBinEnabled = 1; ctx.OfficialFileName = ""; ctx.OfficialFileNames = ""; ctx.WriteSecurity = "1"; ctx.SiteTitle = "Clerk of the Board"; ctx.ListTitle = "RoadFile"; if (ctx.PortalUrl == "") ctx.PortalUrl = null; ctx.displayFormUrl = "https://www.sccgov.org/sites/cob/_layouts/listform.aspx?PageType=4&ListId={8543F6A4-CA22-4496-BA0D-B65021EBE506}"; ctx.editFormUrl = "https://www.sccgov.org/sites/cob/_layouts/listform.aspx?PageType=6&ListId={8543F6A4-CA22-4496-BA0D-B65021EBE506}"; ctx.isWebEditorPreview = 0; ctx.ctxId = 127; ctx.isXslView = true; if (g_ViewIdToViewCounterMap["{41897954-71D0-4F15-A0DA-2FC0F2E87082}"] == null) g_ViewIdToViewCounterMap["{41897954-71D0-4F15-A0DA-2FC0F2E87082}"]= 127; ctx.CurrentUserId = -1; ctx.ContentTypesEnabled = true; ctx127 = ctx; g_ctxDict['ctx127'] = ctx; ]]>
Name   RoadName   RoadNumber   FileLabel1   ScanDate   ScanUser   Modified   BatchName   ID  
2013   1/10/2013 8:07 AM 3
20111121143540_00184B77   CANADA DEL LOS OSOS PETITION 87 GENERAL 11/7/2011 12:00 AM SyTech Solutions, Inc 5/15/2012 2:55 PM SACLA.0001.0627_0001 10
1300   ENGLEWOOD AVENUE 1300 GENERAL 1/30/2012 10:41 AM 20
153-26-085 Grant Deed   Central Expressway & 100 Moffett Blvd. Project 2693 APN 153-26-085 Grant Deed 5/17/2018 9:39 AM 21
092-34-001 Deed of Right of Way   Old Piedmont Road 6438 APN 092-34-001 Deed of Right of Way 12/13/2017 4:19 PM 23293164 23
086-32-021 and 086-32-028 Quitclaim Deed-1   Montague Expressway 8720 APN 086-32-021 & 086-32-028 (portions) MEI-006-001 12/13/2017 4:10 PM 2334163 24
029-31-002 Deed of Right of Way   2021 Old Calaveras Road 6438 AP 029-31-002 Deed of Right of Way 12/13/2017 4:06 PM 23579281 25
086-32-021 and 086-32-028 Quitclaim Deed-2   Montague Expressway 8720 APN 086-32-021 and 086-32-028 (portion) MEI-006-002 12/13/2017 4:17 PM 23341164 26
201102161823_001B650A   SANTA TERESA BOULEVARD 2765 RIGHTS OF WAY I-L 2/10/2012 12:00 AM SyTech Solutions, Inc 2/16/2012 6:25 PM SACLA.0004.0627_0002 27
20111121144934_0018546A   GIST ROAD 65 CONTRACT EMERGENCY SLIDE REPAIR 11/7/2011 12:00 AM SyTech Solutions, Inc 10/26/2018 2:36 PM SACLA.0001.0627_0020 477
20111121145532_00186D38   Route 237-June 5, 1933 STATE HIGHWAYS 11/7/2011 12:00 AM SyTech Solutions, Inc 3/2/2018 12:36 PM SACLA.0001.0627_0021 568
20111121145532_00186D54   El Camino Real # 7:1-68 STATE HIGHWAYS 11/7/2011 12:00 AM SyTech Solutions, Inc 3/2/2018 12:38 PM SACLA.0001.0627_0021 577
20111121165954_0018575C   ALMADEN EXPRESSWAY 5-A REDMOND RD TO ROUTE #87 PUBLIC HEARING 11/7/2011 12:00 AM SyTech Solutions, Inc 2/8/2012 7:27 PM SACLA.0001.0627_0033 746
20111121170441_001869DD   Montague Expressway CONTRACTS AND AGREEMENTS EXPRESSWAYS MONTAGUE SOUTHERN PACIFIC TRANS CO 11/7/2011 12:00 AM SyTech Solutions, Inc 5/17/2018 10:35 AM SACLA.0001.0627_0036 834
20111121171408_00185E2D   SHANNON ROAD 339 RIGHTS OF WAY A-Z 11/7/2011 12:00 AM SyTech Solutions, Inc 1/9/2012 11:58 AM SACLA.0001.0627_0042 997
20111205094143_00195484   PINKERT STREET 2510 GENERAL 11/29/2011 12:00 AM SyTech Solutions, Inc 2/1/2012 8:35 AM SACLA.0002.0627_0036 1438
20111205095358_0019389D   GORDON WAY 1085 GENERAL 11/29/2011 12:00 AM SyTech Solutions, Inc 1/24/2012 1:06 PM SACLA.0002.0627_0010 1988
20111205095358_001938A2   ARBOR AVENUE 1090 GENERAL 11/29/2011 12:00 AM SyTech Solutions, Inc 1/24/2012 1:07 PM SACLA.0002.0627_0010 1998
20111205095358_001938AE   CALIFORNIA AVENUE 1100 GENERAL 11/29/2011 12:00 AM SyTech Solutions, Inc 1/24/2012 1:12 PM SACLA.0002.0627_0010 2007
20111205095904_00195A6B   LAGUNA ROAD 1510 GENERAL 11/29/2011 12:00 AM SyTech Solutions, Inc 1/30/2012 9:53 AM SACLA.0002.0627_0037 2535
20111205100341_00193842   BUCKNALL ROAD 1047 GENERAL 11/29/2011 12:00 AM SyTech Solutions, Inc 1/30/2012 10:59 AM SACLA.0002.0627_0006 2617
20111205100755_00194CE8   BARRY LANE 2072 GENERAL 11/29/2011 12:00 AM SyTech Solutions, Inc 1/30/2012 11:02 AM SACLA.0002.0627_0015 3170
20111205100755_00194EF4   FREMONT AVENUE 393 RIGHTS OF WAY A - J 11/29/2011 12:00 AM SyTech Solutions, Inc 1/10/2012 11:35 AM SACLA.0002.0627_0028 3317
20111205100755_00194EF5   FREMONT AVENUE 393 RIGHTS OF WAY K - Z 11/29/2011 12:00 AM SyTech Solutions, Inc 1/10/2012 11:37 AM SACLA.0002.0627_0028 3328
20111205100755_00194FBE   OLIVE AVENUE 1418 RIGHTS OF WAY A-Z 11/29/2011 12:00 AM SyTech Solutions, Inc 1/31/2012 8:15 AM SACLA.0002.0627_0029 3451
20111205100755_0019530F   HALE AVENUE W MAIN TO LLAGAS 866 L C SMITH COMPANY 11/29/2011 12:00 AM SyTech Solutions, Inc 1/31/2012 8:11 AM SACLA.0002.0627_0035 3621
20111205100755_001956C1   FOOTHILL AVENUE 436 CONTRACT - Raisch Paving 11/29/2011 12:00 AM SyTech Solutions, Inc 1/10/2012 12:13 PM SACLA.0002.0627_0039 3631
20120206152326_001A19E5   CONTRACTS AND AGREEMENTS COST SHARING ST IMPVTS VARIOUS SUNNYVALE CITY 1/18/2012 12:00 AM SyTech Solutions, Inc 2/6/2012 3:24 PM SACLA.0003.0627_0002 3736
20120206152326_001A19DD   CONTRACTS AND AGREEMENTS COST SHARING STORY ROAD SAN JOSE CITY 1/18/2012 12:00 AM SyTech Solutions, Inc 2/6/2012 3:24 PM SACLA.0003.0627_0002 3738
20120206152326_001A19D8   CONTRACTS AND AGREEMENTS COST SHARING STORY ROAD SAN JOSE CITY IMPUT AND SIGNAL AT STORY AND CAPITOL EXPRESSWAY 1/18/2012 12:00 AM SyTech Solutions, Inc 2/6/2012 3:24 PM SACLA.0003.0627_0002 3739
20120206152326_001A19ED   CONTRACTS AND AGREEMENTS COST SHARING STRIPING/RDWYS SAN JOSE CITY OF 1/18/2012 12:00 AM SyTech Solutions, Inc 2/6/2012 3:24 PM SACLA.0003.0627_0002 3741
20120206152326_001A19E1   Story Tod CONTRACTS AND AGREEMENTS COST SHARING STORY RD TULLY RD SAN ANTONIO ST STATE DIV OF HWYS 1/18/2012 12:00 AM SyTech Solutions, Inc 5/18/2018 2:15 PM SACLA.0003.0627_0002 3742
20120206152326_001A19DF   Story Road CONTRACTS AND AGREEMENTS COST SHARING STORY RD STATE DIV OF HWYS CO-STATE AGMT 5 FAS MCLAUGHLIN AVE TO WHITE RD 1/18/2012 12:00 AM SyTech Solutions, Inc 5/18/2018 2:15 PM SACLA.0003.0627_0002 3743
20120206152326_001A19DE   CONTRACTS AND AGREEMENTS COST SHARING STORY ROAD STATE DIV OF HIGHWAYS CO-STATE AGMT 18 FAS COYOTE CREEK BRIDGES TO BAYSHORE HWY 1/18/2012 12:00 AM SyTech Solutions, Inc 2/6/2012 3:24 PM SACLA.0003.0627_0002 3745
20120206152326_001A19E3   CONTRACTS AND AGREEMENTS COST SHARING ST IMPV VARIOUS SAN JOSE CITY 1/18/2012 12:00 AM SyTech Solutions, Inc 2/6/2012 3:24 PM SACLA.0003.0627_0002 3746
20120206152326_001A19E8   CONTRACTS AND AGREEMENTS COST SHARING STREELIGHTS SAN JOSE CITY OF 1/18/2012 12:00 AM SyTech Solutions, Inc 2/6/2012 3:24 PM SACLA.0003.0627_0002 3748
20120206152326_001A19EE   CONTRACTS AND AGREEMENTS COST SHARING SUMMIT ROAD STATE DIV OF HWY FAS 81 BTW WOODWARDIA AND HALLS BRIDGE 1/18/2012 12:00 AM SyTech Solutions, Inc 2/6/2012 3:24 PM SACLA.0003.0627_0002 3752
20120206152326_001A19EC   CONTRACTS AND AGREEMENTS COST SHARING STREET STRIPING SAN JOSE CITY 1/18/2012 12:00 AM SyTech Solutions, Inc 2/6/2012 3:24 PM SACLA.0003.0627_0002 3753
20120206152326_001A19FA   CONTRACTS AND AGREEMENTS COST SHARING TRAFFIC SIGNALS SAN JOSE CITY OF 1/18/2012 12:00 AM SyTech Solutions, Inc 2/6/2012 3:24 PM SACLA.0003.0627_0002 3756
20120206152326_001A1A09   Tully Road CONTRACTS AND AGREEMENTS COST SHARING TULLY ROAD SAN JOSE CITY/IMPV BTW MONTEREY RD AND SENTER RD 1/18/2012 12:00 AM SyTech Solutions, Inc 5/18/2018 2:19 PM SACLA.0003.0627_0002 3757
20120206152326_001A19F4   CONTRACTS AND AGREEMENTS COST SHARING TENTH STREET GILROY CITY BTW MONTEREY HWY AND PACHECO PASS ROAD 1/18/2012 12:00 AM SyTech Solutions, Inc 2/6/2012 3:24 PM SACLA.0003.0627_0002 3758
20120206152326_001A19F9   CONTRACTS AND AGREEMENTS COST SHARING TRAFFIC SIGNALS SAN JOSE CITY OF 1/18/2012 12:00 AM SyTech Solutions, Inc 2/6/2012 3:24 PM SACLA.0003.0627_0002 3759
20120206152326_001A1A08   Tully Road CONTRACTS AND AGREEMENTS COST SHARING TULLY ROAD SAN JOSE CITY/BTW SO 7TH AND MONTEREY ROAD 1/18/2012 12:00 AM SyTech Solutions, Inc 5/18/2018 2:18 PM SACLA.0003.0627_0002 3760
20120206152326_001A1A00   CONTRACTS AND AGREEMENTS COST SHARING TRAFFIC SIGNALS SAN JOSE CITY/UNION CAMDEN UNION WOODWARD BASCOM CURTNER CAMDEN LEIGH 1/18/2012 12:00 AM SyTech Solutions, Inc 2/6/2012 3:24 PM SACLA.0003.0627_0002 3761
20120206152326_001A1A01   CONTRACTS AND AGREEMENTS COST SHARING TRIMBLE ROAD SAN JOSE CITY/BTW ENGR STATION 66 AND 50 AND O TOOLE AVE 1/18/2012 12:00 AM SyTech Solutions, Inc 2/6/2012 3:24 PM SACLA.0003.0627_0002 3762
20120206152326_001A19FC   CONTRACTS AND AGREEMENTS COST SHARING TRAFFIC SIGNALS SAN JOSE CITY/CONTROL OF SIGNALS IN JOINT JURISDICTIONS 1/18/2012 12:00 AM SyTech Solutions, Inc 2/6/2012 3:24 PM SACLA.0003.0627_0002 3763
20120206152326_001A1A0A   Umbarger Road CONTRACTS AND AGREEMENTS COST SHARING UMBARGER ROAD GLADDING CERAMIC INSULATOR CO 1/18/2012 12:00 AM SyTech Solutions, Inc 5/18/2018 2:19 PM SACLA.0003.0627_0002 3764
20120206152326_001A1A0B   Umbarger Road CONTRACTS AND AGREEMENTS COST SHARING UMBARGER ROAD SAN JOSE CITY/BTWN SENTER ROAD AND MONTEREY HIGHWAY 1/18/2012 12:00 AM SyTech Solutions, Inc 5/18/2018 2:19 PM SACLA.0003.0627_0002 3765
20120206152326_001A19F2   CONTRACTS AND AGREEMENTS COST SHARING TANTAU AVE CUPERTINO CITY OF 1/18/2012 12:00 AM SyTech Solutions, Inc 2/6/2012 3:24 PM SACLA.0003.0627_0002 3766
20120206152326_001A1A05   Trinidad Drive CONTRACTS AND AGREEMENTS COST SHARING TRINIDAD DRIVE SAN JOSE CITY OF 1/18/2012 12:00 AM SyTech Solutions, Inc 5/18/2018 2:17 PM SACLA.0003.0627_0002 3767
20120206152326_001A1A06   Tully Road CONTRACTS AND AGREEMENTS COST SHARING TULLY ROAD SAN JOSE CITY BTW SO 7TH AND HWY 101 1/18/2012 12:00 AM SyTech Solutions, Inc 5/18/2018 2:17 PM SACLA.0003.0627_0002 3768
20120206152326_001A1A03   CONTRACTS AND AGREEMENTS COST SHARING TRIMBLE RD STATE DIV OF HWYS/SIGNALS AT INTERSECTION OF RT 5 1/18/2012 12:00 AM SyTech Solutions, Inc 2/6/2012 3:24 PM SACLA.0003.0627_0002 3769
20120206152326_001A19FE   CONTRACTS AND AGREEMENTS COST SHARING TRAFFIC SIGNALS SAN JOSE CITY OF/MODIFICATION AND CHANNELIZATION AT 6 LOCATIONS 1/18/2012 12:00 AM SyTech Solutions, Inc 2/6/2012 3:24 PM SACLA.0003.0627_0002 3770
20120206152326_001A19F1   CONTRACTS AND AGREEMENTS COST SHARING SUMMIT ROAD STATE DIV OF HWY FAS 616 RT 5 AND WOODWARDIA 1/18/2012 12:00 AM SyTech Solutions, Inc 2/6/2012 3:24 PM SACLA.0003.0627_0002 3771
20120206152326_001A19F8   CONTRACTS AND AGREEMENTS COST SHARING TRAFFIC SIGNALS LOS GATOS AND CAMPBELL 1/18/2012 12:00 AM SyTech Solutions, Inc 2/6/2012 3:24 PM SACLA.0003.0627_0002 3772
20120206152326_001A19F5   CONTRACTS AND AGREEMENTS COST SHARING THORTON WAY SAN JOSE CITY OF 1/18/2012 12:00 AM SyTech Solutions, Inc 2/6/2012 3:24 PM SACLA.0003.0627_0002 3773
20120206152326_001A1A04   Trimble Road CONTRACTS AND AGREEMENTS COST SHARING TRIMBLE ROAD STATE AND SAN JOSE CITY 1/18/2012 12:00 AM SyTech Solutions, Inc 5/18/2018 2:17 PM SACLA.0003.0627_0002 3774
20120206152326_001A1A10   Union Ave CONTRACTS AND AGREEMENTS COST SHARING UNION AVENUE SAN JOSE CITY OF/BETWEEN BASCOM AND DRY CREEK 1/18/2012 12:00 AM SyTech Solutions, Inc 5/18/2018 2:19 PM SACLA.0003.0627_0002 3775
20120206152326_001A1A21   CONTRACTS AND AGREEMENTS COST SHARING VARIOUS STREETS SAN JOSE CITY OF/RESURFACING CAPITOL DISALVO AND GAY AVENUES 1/18/2012 12:00 AM SyTech Solutions, Inc 2/6/2012 3:24 PM SACLA.0003.0627_0002 3776
20120206152326_001A1A16   CONTRACTS AND AGREEMENTS COST SHARING VARIOUS STREETS LOS GATOS TOWN OF/RESURFACING BLOSSOM HILL AND LOS GATOS ALMADEN ROADS 1/18/2012 12:00 AM SyTech Solutions, Inc 2/6/2012 3:24 PM SACLA.0003.0627_0002 3777
20120206152326_001A1A24   CONTRACTS AND AGREEMENTS COST SHARING VARIOUS STREETS SAN JOSE CITY OF/RESURFACING PORTIONS OF STEVENS CREEK BLVD PEARL AVE MERIDIAN AND HAMILTON AVE 1/18/2012 12:00 AM SyTech Solutions, Inc 2/6/2012 3:24 PM SACLA.0003.0627_0002 3778
20120206152326_001A1A1C   CONTRACTS AND AGREEMENTS COST SHARING VARIOUS STREETS SAN JOSE CITY OF/CASCOM AVE AND WOODWARD AVE TULLY RD AND SENTER RD TULLY RD AND MCLAUGHLIN AVE 1/18/2012 12:00 AM SyTech Solutions, Inc 2/6/2012 3:24 PM SACLA.0003.0627_0002 3779
20120206152326_001A1A27   CONTRACTS AND AGREEMENTS COST SHARING VARIOUS STREETS SAN JOSE CITY OF/RESURFACING PORTIONS OF SAN CARLOS STREET ET AL 1/18/2012 12:00 AM SyTech Solutions, Inc 2/6/2012 3:24 PM SACLA.0003.0627_0002 3780
20120206152326_001A1A18   CONTRACTS AND AGREEMENTS COST SHARING VARIOUS STREETS MORGAN HILL CITY OF 1/18/2012 12:00 AM SyTech Solutions, Inc 2/6/2012 3:24 PM SACLA.0003.0627_0002 3781
20120206152326_001A1A1A   CONTRACTS AND AGREEMENTS COST SHARING VARIOUS STREETS PALO ALTO CITY OF/HILLVIEW/FOOTHILL HILLVIEW/MIRANDA/ARASTRADERO/FOOTHILL/MIRANDA 1/18/2012 12:00 AM SyTech Solutions, Inc 2/6/2012 3:24 PM SACLA.0003.0627_0002 3782
20120206152326_001A1A15   CONTRACTS AND AGREEMENTS COST SHARING VARIOUS ST LOS GATOS TOWN OF/RESURFACING SHANNON AND OLD BLOSSOM HILL ROADS 1/18/2012 12:00 AM SyTech Solutions, Inc 2/6/2012 3:24 PM SACLA.0003.0627_0002 3783
20120206152326_001A1A13   Union Ave CONTRACTS AND AGREEMENTS COST SHARING UNION AVENUE STATE DIV OF HWY/COUNTY STATE AGMT 23 SIGNALS INTERSECTION SJ-LOS GATOS RD 1/18/2012 12:00 AM SyTech Solutions, Inc 5/18/2018 2:19 PM SACLA.0003.0627_0002 3784
20120206152326_001A1A28   CONTRACTS AND AGREEMENTS COST SHARING VARIOUS STREETS SAN JOSE CITY OF/SAN TOMAS AQUINO RD STELLING AVE CURTNER AVE 1/18/2012 12:00 AM SyTech Solutions, Inc 2/6/2012 3:24 PM SACLA.0003.0627_0002 3785
20120206152326_001A1A0C   Union Ave CONTRACTS AND AGREEMENTS COST SHARING UNION AVENUE SAN JOSE CITY AND UNION SCH DIST/SIGNALS PARKER ELEMENTARY SCHOOL 1/18/2012 12:00 AM SyTech Solutions, Inc 5/18/2018 2:19 PM SACLA.0003.0627_0002 3786
20120206152326_001A1A0E   Union Ave CONTRACTS AND AGREEMENTS COST SHARING UNION AVENUE STATE DIV OF HWY/COUNTY STATE AGMT 11 FAS BTW LOS GATOS ALMADEN RD AND RT 5 1/18/2012 12:00 AM SyTech Solutions, Inc 5/18/2018 2:19 PM SACLA.0003.0627_0002 3787
20120206152326_001A1A12   Union Ave CONTRACTS AND AGREEMENTS COST SHARING UNION AVE SAN JOSE CITY/CAMPBELL AVE TO BASCOM CO 1/18/2012 12:00 AM SyTech Solutions, Inc 5/18/2018 2:19 PM SACLA.0003.0627_0002 3788
20120206152326_001A1A22   CONTRACTS AND AGREEMENTS COST SHARING VARIOUS STREETS SAN JOSE CITY OF/REDMOND AVE AND MERIDIAN CAMDEN AVE AND COLEMAN RD 1/18/2012 12:00 AM SyTech Solutions, Inc 2/6/2012 3:24 PM SACLA.0003.0627_0002 3789
20120206152326_001A1A1E   CONTRACTS AND AGREEMENTS COST SHARING VARIOUS STREETS SAN JOSE CITY OF/PORTIONS OF MCKEE ROAD MOORPARK AVENUE AND ALMADEN ROAD 1/18/2012 12:00 AM SyTech Solutions, Inc 2/6/2012 3:24 PM SACLA.0003.0627_0002 3790
20120206152326_001A1A42   Williams St. CONTRACTS AND AGREEMENTS COST SHARING WILLIAMS ST LOS GATOS TOWN/MATCHING CREDIT FOR NON EXPRESSWAY PROJECT 1/18/2012 12:00 AM SyTech Solutions, Inc 5/18/2018 2:24 PM SACLA.0003.0627_0002 3791
20120206152326_001A1A31   CONTRACTS AND AGREEMENTS COST SHARING WALDO ROAD CAMPBELL CITY 1/18/2012 12:00 AM SyTech Solutions, Inc 2/6/2012 3:24 PM SACLA.0003.0627_0002 3792
20120206152326_001A1A45   Williams St CONTRACTS AND AGREEMENTS COST SHARING WILLIAMS ST AND ROBERT RD/LOS GATOS TOWN 1/18/2012 12:00 AM SyTech Solutions, Inc 5/18/2018 2:24 PM SACLA.0003.0627_0002 3793
20120206152326_001A1A35   CONTRACTS AND AGREEMENTS COST SHARING WEST SAN CARLOS STREET/SAN JOSE CITY OF/INTERSECTION IMPUTS AT CAHILL ST 1/18/2012 12:00 AM SyTech Solutions, Inc 2/6/2012 3:24 PM SACLA.0003.0627_0002 3794
20120206152326_001A1A41   Williams Road CONTRACTS AND AGREEMENTS COST SHARING WILLIAMS ROAD SAN JOSE CITY/IMPV WILLIAMS RD NEAR OAKMONT PL 1/18/2012 12:00 AM SyTech Solutions, Inc 5/18/2018 2:22 PM SACLA.0003.0627_0002 3795
20120206152326_001A1A47   Winchester Blvd CONTRACTS AND AGREEMENTS COST SHARING WINCHESTER BLVD CAMPBELL CITY 1/18/2012 12:00 AM SyTech Solutions, Inc 5/18/2018 2:24 PM SACLA.0003.0627_0002 3796
20120206152326_001A1A2D   CONTRACTS AND AGREEMENTS COST SHARING CARIOUS ROADS SANTA CLARA CITY OF/FOREST AVE AND CECIL ST RESURFACING 1/18/2012 12:00 AM SyTech Solutions, Inc 2/6/2012 3:24 PM SACLA.0003.0627_0002 3797
20120206152326_001A1A2E   CONTRACTS AND AGREEMENTS COST SHARING VOSS ETC CUPERTINO/RESURFACING 1/18/2012 12:00 AM SyTech Solutions, Inc 2/6/2012 3:24 PM SACLA.0003.0627_0002 3798
20120206152326_001A1A3E   White Road CONTRACTS AND AGREEMENTS COST SHARING WHITE ROAD SAN JOSE CITY OF/ALUM ROCK AVENUE TO MCKEE ROAD 1/18/2012 12:00 AM SyTech Solutions, Inc 5/18/2018 2:21 PM SACLA.0003.0627_0002 3799
20120206152326_001A1A32   CONTRACTS AND AGREEMENTS COST SHARING WALSH AVE AND SAN TOMAS EXPSWY INTERSECTION SANTA CLARA CITY OF 1/18/2012 12:00 AM SyTech Solutions, Inc 2/6/2012 3:24 PM SACLA.0003.0627_0002 3800
20120206152326_001A1A37   CONTRACTS AND AGREEMENTS COST SHARING WESTMONT AVE SAN JOSE CITY OF/EXTENSION TO QUITO ROAD 1/18/2012 12:00 AM SyTech Solutions, Inc 2/6/2012 3:24 PM SACLA.0003.0627_0002 3801
20120206152326_001A1A46   Williams St CONTRACTS AND AGREEMENTS COST SHARING WILLIAMS ST SAN JOSE CITY/WESTERN PACIFIC RAILROAD CROSSING 1/18/2012 12:00 AM SyTech Solutions, Inc 5/18/2018 2:24 PM SACLA.0003.0627_0002 3802
20120206152326_001A1A48   Winchester Blvd CONTRACTS AND AGREEMENTS COST SHARING WINCHESTER BLVD CAMPBELL CITY OF/SIDEWALK CONSTRUCTION 1/18/2012 12:00 AM SyTech Solutions, Inc 5/18/2018 2:24 PM SACLA.0003.0627_0002 3803
20120206152326_001A1A38   Westmont Ave CONTRACTS AND AGREEMENTS COST SHARING WESTMONT AVENUE SAN JOSE CITY AND S C FLOOD CONTROL AND WATER DIST AND CAMPBELL UNION HI SCH DIST/BRIDGE ST IMPV CHANNEL IMPV AND FENCING AT WESTMONT AVE AND SAN TOMAS CRK 1/18/2012 12:00 AM SyTech Solutions, Inc 5/18/2018 2:20 PM SACLA.0003.0627_0002 3804
20120206152326_001A1A3C   CONTRACTS AND AGREEMENTS COST SHARING WHEELCHAIR RAMPS SAN JOSE CITY/VARIOUS STREET INTERSECTIONS UNDER JOINT CITY/COUNTY JURISDICTION 1/18/2012 12:00 AM SyTech Solutions, Inc 2/6/2012 3:24 PM SACLA.0003.0627_0002 3805
20120206152326_001A1A40   White Road CONTRACTS AND AGREEMENTS COST SHARING WHITE ROAD SAN JOSE CITY OF/ALUM ROCK AVE TO STORY RD 1/18/2012 12:00 AM SyTech Solutions, Inc 5/18/2018 2:21 PM SACLA.0003.0627_0002 3806
20120206152326_001A1A2A   CONTRACTS AND AGREEMENTS COST SHARING VARIOUS STREETS SAN JOSE CITY OF/SIGNALIZATION AND INTERSECTION IMPROVEMENTS AT 7 LOCATIONS 1/18/2012 12:00 AM SyTech Solutions, Inc 2/6/2012 3:24 PM SACLA.0003.0627_0002 3807
20120206152326_001A1A33   CONTRACTS AND AGREEMENTS COST SHARING WEST PAC R R XING/SAN JOSE CITY OF/WESTERN PACIFIC RAILROAD CROSSING AT PARK AVENUE 1/18/2012 12:00 AM SyTech Solutions, Inc 2/6/2012 3:24 PM SACLA.0003.0627_0002 3808
20120206152326_001A1A2C   CONTRACTS AND AGREEMENTS COST SHARING VARIOUS STREETS SAN JOSE CITY OF/STEVENS CREEK WEST SAN CARLOS AT BELLEROSE BASCOM LELAND LEIGH MERIDIAN RACE AND LINCOLN 1/18/2012 12:00 AM SyTech Solutions, Inc 2/6/2012 3:24 PM SACLA.0003.0627_0002 3809
20120206152326_001A1A68   CONTRACTS AND AGREEMENTS EXPRESSWAYS ALMADEN/KELEZ ROBERT 1/18/2012 12:00 AM SyTech Solutions, Inc 2/6/2012 3:24 PM SACLA.0003.0627_0002 3810
20120206152326_001A1A52   Winchester Blvd CONTRACTS AND AGREEMENTS COST SHARING WINCHESTER BLVD SANTA CLARA CITY OF/STEVENS CREEK BLVD TO BELLOMY ST IMPROVEMENT 1/18/2012 12:00 AM SyTech Solutions, Inc 5/18/2018 2:22 PM SACLA.0003.0627_0002 3811
20120206152326_001A1A4E   Winchester Blvd CONTRACTS AND AGREEMENTS COST SHARING WINCHESTER BLVD SAN JOSE CITY/IMPV BTW RIDDLE RD AND N OF MOORPARK AVE 1/18/2012 12:00 AM SyTech Solutions, Inc 5/18/2018 2:25 PM SACLA.0003.0627_0002 3812
20120206152326_001A1A5F   CONTRACTS AND AGREEMENTS PROF SERVICES ENGINEERING/RUTH AND GOING/ALMADEN EXPRESSWAY UN IV 1/18/2012 12:00 AM SyTech Solutions, Inc 2/6/2012 3:24 PM SACLA.0003.0627_0002 3813
20120206152326_001A1A5C   CONTRACTS AND AGREEMENTS EXPRESSWAYS ALMADEN/A-M COMPANY LANDSCAPING AND MAINTENANCE 1/18/2012 12:00 AM SyTech Solutions, Inc 2/6/2012 3:24 PM SACLA.0003.0627_0002 3814
20120206152326_001A1A65   CONTRACTS AND AGREEMENTS EXPRESSWAYS ALMADEN/DAVIDSON KAVANAGH ET AL/SITE IMPROVEMENTS ALMADEN LAKES 1/18/2012 12:00 AM SyTech Solutions, Inc 2/6/2012 3:24 PM SACLA.0003.0627_0002 3815
20120206152326_001A1A54   CONTRACTS AND AGREEMENTS COST SHARING WINCHESTER BLVD STATE DIV OF HWYS/CO STATE AGMT 15 FAS PROJ S-996 (1) BTW WILD WAY AND DAVES AVENUE 1/18/2012 12:00 AM SyTech Solutions, Inc 2/6/2012 3:24 PM SACLA.0003.0627_0002 3816
20120206152326_001A1A60   CONTRACTS AND AGREEMENTS PROF SERVICES ENGINEERING/RUTH AND GOING/ALMADEN EXPWY UN 6 BTW GRAYSTONE LN AND MCKEAN RD 1/18/2012 12:00 AM SyTech Solutions, Inc 2/6/2012 3:24 PM SACLA.0003.0627_0002 3817
20120206152326_001A1A4A   Winchester Blvd CONTRACTS AND AGREEMENTS COST SHARING WINCHESTER BLVD LOS GATOS MONTE SERENO/IMPV WINCHESTER BLVD AND LARK AVE FROM LOS GATOS CREEK TO DAVES AVE 1/18/2012 12:00 AM SyTech Solutions, Inc 5/18/2018 2:24 PM SACLA.0003.0627_0002 3818
20120206152326_001A1A69   CONTRACTS AND AGREEMENTS EXPRESSWAYS ALMADEN/SAFEWAY STORES 1/18/2012 12:00 AM SyTech Solutions, Inc 2/6/2012 3:24 PM SACLA.0003.0627_0002 3819
20120206152326_001A1A50   Winchester Blvd CONTRACTS AND AGREEMENTS COST SHARING WINCHESTER BLVD SAN JOSE CITY/INSTALL OF TRAFFIC CONTROL SIGNALS 1/18/2012 12:00 AM SyTech Solutions, Inc 5/18/2018 2:25 PM SACLA.0003.0627_0002 3820
20120206152326_001A1A58   CONTRACTS AND AGREEMENTS COST SHARING WOLFE ROAD SUNNYVALE CITY/SIGNALS AT RED AVENUE 1/18/2012 12:00 AM SyTech Solutions, Inc 2/6/2012 3:24 PM SACLA.0003.0627_0002 3821
20120206152326_001A1A59   CONTRACTS AND AGREEMENTS COST SHARING WREN AVE ET AL GILROY CITY OF/RESURFACING OF WREN AVE RONAN AVE/TATUM AVE AND KERN AVE 1/18/2012 12:00 AM SyTech Solutions, Inc 2/6/2012 3:24 PM SACLA.0003.0627_0002 3822
20120206152326_001A1A4D   Winchester Blvd CONTRACTS AND AGREEMENTS COST SHARING WINCHESTER BLVD SAN JOSE CITY/IMPV BTW MOORPARK AVE CITY OF CAMPBELL 1/18/2012 12:00 AM SyTech Solutions, Inc 5/18/2018 2:25 PM SACLA.0003.0627_0002 3823
20120206152326_001A1A55   CONTRACTS AND AGREEMENTS COST SHARING WOLFE ROAD SUNNYVALE CITY/INTERSECTION WOLFE ROAD AND EL CAMINO WOLFE RD AND FREMONT AVE 1/18/2012 12:00 AM SyTech Solutions, Inc 2/6/2012 3:24 PM SACLA.0003.0627_0002 3824
20120206152326_001A1A62   CONTRACTS AND AGREEMENTS EXPRESSWAYS ALMADEN/DAVIDSON CHARLES W/LANDSCAPE AND MAINTENANCE AGREEMENT 1/18/2012 12:00 AM SyTech Solutions, Inc 2/6/2012 3:24 PM SACLA.0003.0627_0002 3825
20120206152326_001A1A5B   CONTRACTS AND AGREEMENTS COST SHARING ZANKER ROAD SAN JOSE CITY AND STATE/INSTALL SIGNALS SAFETY LIGHTING AND FLASHING SIGNALS AT RT 237 1/18/2012 12:00 AM SyTech Solutions, Inc 2/6/2012 3:24 PM SACLA.0003.0627_0002 3826
20120206152326_001A1A6B   CONTRACTS AND AGREEMENTS EXPRESSWAYS ALMADEN EXPRESSWAY/SAN JOSE CITY/BTW HILLSDALE AVE AND MCKEAN RD 1/18/2012 12:00 AM SyTech Solutions, Inc 2/6/2012 3:24 PM SACLA.0003.0627_0002 3827
20120206152326_001A1A66   CONTRACTS AND AGREEMENTS EXPRESSWAYS ALMADEN/GREAT WESTERN SAVINGS/LANDSCAPE IMPV AT BLOSSOM HILL RD 1/18/2012 12:00 AM SyTech Solutions, Inc 2/6/2012 3:24 PM SACLA.0003.0627_0002 3828
20120206152326_001A1EF9   ALMADEN ROAD CONTRACTS AND AGREEMENTS COST SHARING ALMADEN ROAD S C CO FLOOD CONTROL DIST CULVERTS OVER GREYSTONE CREEK 1/18/2012 12:00 AM SyTech Solutions, Inc 5/18/2018 2:35 PM SACLA.0003.0627_0004 3829
20120206152326_001A1EF8   Almaden Road CONTRACTS AND AGREEMENTS COST SHARING ALMADEN ROAD S C CO FLOOD CONTROL DIST CULVERTS OVER GOLF CREEK 1/18/2012 12:00 AM SyTech Solutions, Inc 5/18/2018 2:35 PM SACLA.0003.0627_0004 3830
20120206152326_001A1A70   CONTRACTS AND AGREEMENTS EXPRESSWAYS CAPITOL INVESTMENT PROPERTIES/LANDSCAPING 1/18/2012 12:00 AM SyTech Solutions, Inc 2/6/2012 3:24 PM SACLA.0003.0627_0002 3831
20120206152326_001A1EF3   Almaden Plaza Way CONTRACTS AND AGREEMENTS COST SHARING ALMADEN PLAZA WAY/BROTHERS INTERNATIONAL CORP 1/18/2012 12:00 AM SyTech Solutions, Inc 5/18/2018 2:35 PM SACLA.0003.0627_0004 3832
20120206152326_001A1A72   Capitol Expwy CONTRACTS AND AGREEMENTS EXPRESSWAYS CAPITOL/HOUGHTON LOWELL 1/18/2012 12:00 AM SyTech Solutions, Inc 5/18/2018 2:25 PM SACLA.0003.0627_0002 3833
20120206152326_001A1A77   Capitol Expwy CONTRACTS AND AGREEMENTS EXPRESSWAYS CAPITOL/ARCADIA DEVELOPMENT COMPANY/IMPROVEMENTS AT SNELL AVE 1/18/2012 12:00 AM SyTech Solutions, Inc 5/18/2018 2:25 PM SACLA.0003.0627_0002 3834
20120206152326_001A1A78   Capitol Expwy CONTRACTS AND AGREEMENTS EXPRESSWAYS CAPITOL/A E PROPERTIES INC/BETWEEN SILVER CREEK AND ABORN RDS 1/18/2012 12:00 AM SyTech Solutions, Inc 5/18/2018 2:24 PM SACLA.0003.0627_0002 3835
20120206152326_001A1A73   Capitol Expwy CONTRACTS AND AGREEMENTS EXPRESSWAYS CAPITOL/CAPITOL III ASSOCIATES/IMP INCL TRAFFIC SIGNAL AT VISTA PARK DRIVE 1/18/2012 12:00 AM SyTech Solutions, Inc 5/18/2018 2:25 PM SACLA.0003.0627_0002 3836
20120206152326_001A1EF6   Almaden Road CONTRACTS AND AGREEMENTS COST SHARING ALMADEN ROAD SAN JOSE CITY OF WIDENING AND RELOCATION 1/18/2012 12:00 AM SyTech Solutions, Inc 5/18/2018 2:35 PM SACLA.0003.0627_0004 3837
20120206152326_001A1A71   Capitol Expwy CONTRACTS AND AGREEMENTS EXPRESSWAYS CAPITOL/MANRAO KENNETH S 1/18/2012 12:00 AM SyTech Solutions, Inc 5/18/2018 2:25 PM SACLA.0003.0627_0002 3838
20120206152326_001A1A6C   CONTRACTS AND AGREEMENTS EXPRESSWAYS ALMADEN EXPWY SAN JOSE CITY/BTW HILLSDALE AVE AND COLEMAN RD 1/18/2012 12:00 AM SyTech Solutions, Inc 2/6/2012 3:24 PM SACLA.0003.0627_0002 3839
20120206152326_001A1EEB   Almaden Expwy CONTRACTS AND AGREEMENTS COST SHARING ALMADEN EXPWY STATE DIV HWYS AND SAN JOSE CITY FAS AGMT UE 65-3 BTW COLEMAN RD AND HILLSDALE AVE 1/18/2012 12:00 AM SyTech Solutions, Inc 5/18/2018 2:35 PM SACLA.0003.0627_0004 3840
20120206152326_001A1A74   Capitol Expwy CONTRACTS AND AGREEMENTS EXPRESSWAYS CAPITOL/B-W CONSTRUCTION COMPANY/LANDSCAPE AND MAINTENANCE 1/18/2012 12:00 AM SyTech Solutions, Inc 5/18/2018 2:25 PM SACLA.0003.0627_0002 3841
20120206152326_001A1A76   Capitol Expwy CONTRACTS AND AGREEMENTS EXPRESSWAYS CAPITOL EXPWY/SAN JOSE CITY/BTW NARVAEZ RD AND TUERS RD 1/18/2012 12:00 AM SyTech Solutions, Inc 5/18/2018 2:25 PM SACLA.0003.0627_0002 3842
20120206152326_001A1EFA   ALMADEN ROAD CONTRACTS AND AGREEMENTS COST SHARING ALMADEN ROAD S C CO FLOOD CONTROL DIST ADJACENT TO GUADALUPE RIVER 1/18/2012 12:00 AM SyTech Solutions, Inc 5/18/2018 2:35 PM SACLA.0003.0627_0004 3843
20120206152326_001A1A6E   CONTRACTS AND AGREEMENTS EXPRESSWAYS ALMADEN/SAN JOSE CITY OF/TEMPORARY MEDIAN OPENING AT MCINTOSH CREEK DRIVE 1/18/2012 12:00 AM SyTech Solutions, Inc 2/6/2012 3:24 PM SACLA.0003.0627_0002 3844
20120206152326_001A1A7F   GENERAL 1/18/2012 12:00 AM SyTech Solutions, Inc 2/6/2012 3:26 PM SACLA.0003.0627_0005 3845
20120206152326_001A1EF0   Almaden Expwy CONTRACTS AND AGREEMENTS COST SHARING ALMADEN EXPRESSWAY STATE DIVISION OF HWYS AND SAN JOSE CITY FAS AGMT UE 75-10 BTW 600 S/BLOSSOM HILL ROAD TO CAPITOL EXPRESSWAY 1/18/2012 12:00 AM SyTech Solutions, Inc 5/18/2018 2:35 PM SACLA.0003.0627_0004 3846
20120206152326_001A1EFB   ALMADEN ROAD CONTRACTS AND AGREEMENTS COST SHARING ALMADEN RD STATE DIVISION OF HWYS CO STATE AGMT 20 FAS SURFACING AND SPRR OVERHEAD 1/18/2012 12:00 AM SyTech Solutions, Inc 5/18/2018 2:35 PM SACLA.0003.0627_0004 3847
20120206152326_001A1EFC   CONTRACTS AND AGREEMENTS COST SHARING ALMADEN RD STATE DIV OF HWYS CO STATE AGMT 21 FAS CURTNER AVE TO REDBIRD DR 1/18/2012 12:00 AM SyTech Solutions, Inc 2/6/2012 3:25 PM SACLA.0003.0627_0004 3848
20120206152326_001A1F05   CONTRACTS AND AGREEMENTS COST SHARING BASCOM AVENUE CAMPBELL CITY OF FROM UNION AVE TO NATIONAL AVE 1/18/2012 12:00 AM SyTech Solutions, Inc 2/6/2012 3:25 PM SACLA.0003.0627_0004 3849
20120206152326_001A1F01   CONTRACTS AND AGREEMENTS COST SHARING AUZERAIS STREET SAN JOSE CITY SIGNALS RACE ST AND AUZERAIS AVE 1/18/2012 12:00 AM SyTech Solutions, Inc 2/6/2012 3:25 PM SACLA.0003.0627_0004 3850
20120206152326_001A1F00   CONTRACTS AND AGREEMENTS COST SHARING ARNOLD DR ETC GILROY CITY OF RESURFACING VARIOUS STREETS AND PARKING LOTS 1/18/2012 12:00 AM SyTech Solutions, Inc 2/6/2012 3:25 PM SACLA.0003.0627_0004 3851
20120206152326_001A1F0A   CONTRACTS AND AGREEMENTS COST SHARING BASCOM AVENUE LOS GATOS TOWN INTERSECTION LOS GATOS ALMADEN RD 1/18/2012 12:00 AM SyTech Solutions, Inc 2/6/2012 3:25 PM SACLA.0003.0627_0004 3852
20120206152326_001A1F0B   CONTRACTS AND AGREEMENTS COST SHARING BASCOM AVENUE SAN JOSE CITY BTW LINDAIRE AVE AND 1000 N OF FRUITDALE AVE 1/18/2012 12:00 AM SyTech Solutions, Inc 2/6/2012 3:25 PM SACLA.0003.0627_0004 3853
20120206152326_001A1F09   CONTRACTS AND AGREEMENTS COST SHARING BASCOM AVE LOS GATOS TOWN OF CAMINO DEL SOL TO 300 SO OF SHANNON RD 1/18/2012 12:00 AM SyTech Solutions, Inc 2/6/2012 3:25 PM SACLA.0003.0627_0004 3854
20120206152326_001A1F02   CONTRACTS AND AGREEMENTS COST SHARING BAILEY AVENUE IBM CORPORATION 4400 FT W OF SANTA TERESA BLVD TO SANTA TERESA BLVD 1/18/2012 12:00 AM SyTech Solutions, Inc 2/6/2012 3:25 PM SACLA.0003.0627_0004 3855
20120206152326_001A1F03   CONTRACTS AND AGREEMENTS COST SHARING BASCOM AVENUE CAMPBELL CITY ACQUISITION OF LAND 1/18/2012 12:00 AM SyTech Solutions, Inc 2/6/2012 3:25 PM SACLA.0003.0627_0004 3856
20120206152326_001A1F0C   BASCOM AVENUE CONTRACTS AND AGREEMENTS COST SHARING BASCOM AVENUE SAN JOSE CITY BTW UNION AND WEST VALLEY FREEWAY 1/18/2012 12:00 AM SyTech Solutions, Inc 5/18/2018 2:35 PM SACLA.0003.0627_0004 3857
20120206152326_001A1EFF   CONTRACTS AND AGREEMENTS COST SHARING ARASTRADERO RD STATE DIV OF HWY COOP PROJECT 11 ARASTRADERO CHARLESTON RDS 1/18/2012 12:00 AM SyTech Solutions, Inc 2/6/2012 3:25 PM SACLA.0003.0627_0004 3858
20120206152326_001A1F08   CONTRACTS AND AGREEMENTS COST SHARING BASCOM AVENUE LOS GATOS TOWN BTW LARK AVE AND SHANNON ROAD 1/18/2012 12:00 AM SyTech Solutions, Inc 2/6/2012 3:25 PM SACLA.0003.0627_0004 3859
20120206152326_001A1F0D   BASCOM AVENUE CONTRACTS AND AGREEMENTS COST SHARING BASCOME AVENUE SAN JOSE CITY BTW WEST SAN CARLOS ST AND HAMILTON AVE 1/18/2012 12:00 AM SyTech Solutions, Inc 5/18/2018 2:35 PM SACLA.0003.0627_0004 3860
20120206152326_001A1F04   CONTRACTS AND AGREEMENTS COST SHARING BASCOM AVENUE CAMPBELL CITY FROM LOS GATOS CRK TO HAMILTON AVE 1/18/2012 12:00 AM SyTech Solutions, Inc 2/6/2012 3:25 PM SACLA.0003.0627_0004 3861
20120206152326_001A1F0F   BASCOM AVENUE CONTRACTS AND AGREEMENTS COST SHARING BASCOM AVENUE SAN JOSE CITY OF AND LOS GATOS SIGNALIZATION EQUIPMENT AT SOUTH BASCOM AVE AND SAMARITAN DR 1/18/2012 12:00 AM SyTech Solutions, Inc 5/18/2018 2:37 PM SACLA.0003.0627_0004 3862
20120206152326_001A1EFE   CONTRACTS AND AGREEMENTS COST SHARING ALUM ROCK AVE STATE DIV OF HWY IMPVT AND STORM DRAINAGE FACILITIES BTW WHITE RD AND MT HAMILTON RD 1/18/2012 12:00 AM SyTech Solutions, Inc 2/6/2012 3:25 PM SACLA.0003.0627_0004 3863
20120206152326_001A1EFD   C AND A COST SHARING ALMADEN EXPWY TRAFFIC AUTHORITY 1/18/2012 12:00 AM SyTech Solutions, Inc 2/6/2012 3:25 PM SACLA.0003.0627_0004 3864
20120206152326_001A1F0E   BASCOM AVENUE CONTRACTS AND AGREEMENTS COST SHARING BASCOM AVENUE SAN JOSE CITY OF TRAFFIC SIGNALS AT FRUITDALE AVENUE 1/18/2012 12:00 AM SyTech Solutions, Inc 5/18/2018 2:36 PM SACLA.0003.0627_0004 3865
20120206152326_001A1F10   BASCOM AVENUE CONTRACTS AND AGREEMENTS COST SHARING BASCOM AVENUE SANITATION DISTRICT 4 BTWN SAN CARLOS ST AND BASCOM BTWN APRICOT AVE AND UNION AVE WILLOW UNION II C AND D TRUNK SEWER 1/18/2012 12:00 AM SyTech Solutions, Inc 5/18/2018 2:37 PM SACLA.0003.0627_0004 3866
20120206152326_001A1F06   CONTRACTS AND AGREEMENTS COST SHARING BASCOM AVENUE EQUIREAL DEVELOPMENT CORPORATION TRAFFIC SIGNALS BASCOM/RENOVA DR 1/18/2012 12:00 AM SyTech Solutions, Inc 2/6/2012 3:25 PM SACLA.0003.0627_0004 3867
20120206152326_001A1F07   CONTRACTS AND AGREEMENTS COST SHARING BASCOM AVENUE CAMPBELL CITY LOS GATOS CRK TO A PT 400 S/LY FROM APRICOT AVENUE 1/18/2012 12:00 AM SyTech Solutions, Inc 2/6/2012 3:25 PM SACLA.0003.0627_0004 3868
20120206152326_001A1F21   CONTRACTS AND AGREEMENTS COST SHARING BLOSSOM HILL RD LOS GATOS TOWN OF BLOSSOM HILL SCHOOL TO CAMINO DEL CERRO 1/18/2012 12:00 AM SyTech Solutions, Inc 2/6/2012 3:25 PM SACLA.0003.0627_0004 3869
20120206152326_001A1F16   CONTRACTS AND AGREEMENTS COST SHARING BASCOM BRANHAM AND WILLO SAN JOSE CITY OF BASCOM BTW HEATHERDALE AND SAN CARLOS BRANHAM BTW LEIGH AND ALMADEN EXPWY WILLOW BTW GUADALUPE RIVER AND NORMAN AVE 1/18/2012 12:00 AM SyTech Solutions, Inc 2/6/2012 3:25 PM SACLA.0003.0627_0004 3870
20120206152326_001A1F1D   CONTRACTS AND AGREEMENTS COST SHARING BLANEY AVE SAN JOSE AND CUPERTINO CITIES RESURFACING PORTION FROM BOLLINGER RD TO PACIFIC DR 1/18/2012 12:00 AM SyTech Solutions, Inc 2/6/2012 3:25 PM SACLA.0003.0627_0004 3871
20120206152326_001A1F18   BERNARDO AVE CONTRACTS AND AGREEMENTS COST SHARING BERNARDO AVE STATE DIV OF HWYS TRAFFIC SIGNALS AT EL CAMINO REAL 1/18/2012 12:00 AM SyTech Solutions, Inc 5/18/2018 2:37 PM SACLA.0003.0627_0004 3872
20120206152326_001A1F19   BERNAL ROAD CONTRACTS AND AGREEMENTS COST SHARING BERNAL ROAD SAN JOSE CITY OF INTERSECTION OF MONTEREY HWY AND SO PACIFIC RAILROAD 1/18/2012 12:00 AM SyTech Solutions, Inc 5/18/2018 2:37 PM SACLA.0003.0627_0004 3873
20120206152326_001A1F22   CONTRACTS AND AGREEMENTS COST SHARING BLOSSOM HILL RD LOS GATOS TOWN SHANNON RD SHORT RD AND BLOSSOM HILL RD TO SAN JOSE AVE TO HARWOOD AVE 1/18/2012 12:00 AM SyTech Solutions, Inc 2/6/2012 3:25 PM SACLA.0003.0627_0004 3874
20120206152326_001A1F1C   CONTRACTS AND AGREEMENTS COST SHARING BLANEY AVENUE CUPERTINO CITY OF ROUTE 280 TO FOREST AVENUE 1/18/2012 12:00 AM SyTech Solutions, Inc 2/6/2012 3:25 PM SACLA.0003.0627_0004 3875
20120206152326_001A1F1B   BERRYESSA ROAD CONTRACTS AND AGREEMENTS COST SHARING BERRYESSA ROAD SAN JOSE CITY BTW RT 101 AND RT 680 1/18/2012 12:00 AM SyTech Solutions, Inc 5/18/2018 2:37 PM SACLA.0003.0627_0004 3876
20120206152326_001A1F13   BASCOM AVENUE CONTRACTS AND AGREEMENTS COST SHARING BASCOM AVE SO LOS GATOS TOWN INTERSECTION SHANNON RD AND ROBERTS RD 1/18/2012 12:00 AM SyTech Solutions, Inc 5/18/2018 2:37 PM SACLA.0003.0627_0004 3877
20120206152326_001A1F20   CONTRACTS AND AGREEMENTS COST SHARING BLOOMFIELD AVE STATE DEPT OF HWYS PROJ S-991 (1) AGMT NO 10 1/18/2012 12:00 AM SyTech Solutions, Inc 2/6/2012 3:25 PM SACLA.0003.0627_0004 3878
20120206152326_001A1F14   BASCOM AVENUE CONTRACTS AND AGREEMENTS COST SHARING BASCOM AVE SO SAN JOSE CITY BTW CAMINO DEL SOL AND UNION AVE 1/18/2012 12:00 AM SyTech Solutions, Inc 5/18/2018 2:37 PM SACLA.0003.0627_0004 3879
20120206152326_001A1F23   CONTRACTS AND AGREEMENTS COST SHARING BLOSSOM HILL RD LOS GATOS TOWN OF SPOT SAFETY IMPROVEMENTS 1/18/2012 12:00 AM SyTech Solutions, Inc 2/6/2012 3:25 PM SACLA.0003.0627_0004 3880
20120206152326_001A1F12   BASCOM AVENUE CONTRACTS AND AGREEMENTS COST SHARING BASCOM AVE STATE OF CALIF BTW WEST SAN CARLOS ST AND HAMILTON AVE AND BTW APRICOT AVE AND UNION AVE 1/18/2012 12:00 AM SyTech Solutions, Inc 5/18/2018 2:37 PM SACLA.0003.0627_0004 3881
20120206152326_001A1F17   BELLEROSE DRIVE CONTRACTS AND AGREEMENTS COST SHARING BELLEROSE DRIVE SAN JOSE CITY INTERSECTION OF STEVENS CRK BLVD 1/18/2012 12:00 AM SyTech Solutions, Inc 5/18/2018 2:37 PM SACLA.0003.0627_0004 3882
20120206152326_001A1F1A   BERNARDO AVE CONTRACTS AND AGREEMENTS COST SHARING BERNARDO AVENUE SUNNYVALE CITY SIGNALS AT FREMONT RD 1/18/2012 12:00 AM SyTech Solutions, Inc 5/18/2018 2:37 PM SACLA.0003.0627_0004 3883
20120206152326_001A1F1F   CONTRACTS AND AGREEMENTS COST SHARING BLOOMFIELD AVE SANTA CLARA VALLEY WATER DIST 1/18/2012 12:00 AM SyTech Solutions, Inc 2/6/2012 3:25 PM SACLA.0003.0627_0004 3884
20120206152326_001A1F15   BASCOM AVENUE CONTRACTS AND AGREEMENTS COST SHARING BASCOM AVE SO S J CITY AND LOS GATOS TOWN SIGNALS AT SAMARITAN DRIVE 1/18/2012 12:00 AM SyTech Solutions, Inc 5/18/2018 2:37 PM SACLA.0003.0627_0004 3885
20120206152326_001A1F11   BASCOM AVENUE CONTRACTS AND AGREEMENTS COST SHARING BASCOM AVENUE STATE DIV HWYS AND SAN JOSE CITY FAS AGMT UE-71-17 BTW UNION AND NATIONAL AVENUES 1/18/2012 12:00 AM SyTech Solutions, Inc 5/18/2018 2:37 PM SACLA.0003.0627_0004 3886
20120206152326_001A1F1E   CONTRACTS AND AGREEMENTS COST SHARING BLANEY ROAD SAN JOSE AND CUPERTINO CITIES SIGNALS AT BOLLINGER ROAD 1/18/2012 12:00 AM SyTech Solutions, Inc 2/6/2012 3:25 PM SACLA.0003.0627_0004 3887
20120206152326_001A1F25   CONTRACTS AND AGREEMENTS COST SHARING BLOSSOM HILL RD SAN JOSE CITY SHANNON RD SHORT RD AND BLOSSOM HILL RD TO SAN JOSE AVE TO HARWOOD AVE 1/18/2012 12:00 AM SyTech Solutions, Inc 2/6/2012 3:25 PM SACLA.0003.0627_0004 3888
20120206152326_001A1F2F   CALAVERAS RD CONTRACTS AND AGREEMENTS COST SHARING CALAVERAS RD MILPITAS CITY OF FOOTPATH FROM PIEDMONT ROAD TO ED LEVIN PARK 1/18/2012 12:00 AM SyTech Solutions, Inc 5/18/2018 2:37 PM SACLA.0003.0627_0004 3889
20120206152326_001A1F2E   BURCHELL ROAD CONTRACTS AND AGREEMENTS COST SHARING BURCHELL ROAD SANTA CLARA VALLEY WATER DISTRICT 1/18/2012 12:00 AM SyTech Solutions, Inc 5/18/2018 2:37 PM SACLA.0003.0627_0004 3890
20120206152326_001A1F32   CAMDEN AVE CONTRACTS AND AGREEMENTS COST SHARING CAMDEN AVE SAN JOSE CITY OF BOSE LANE TO TRINIDAD AVE 1/18/2012 12:00 AM SyTech Solutions, Inc 5/18/2018 2:42 PM SACLA.0003.0627_0004 3891
20120206152326_001A1F29   CONTRACTS AND AGREEMENTS COST SHARING BOYNTON AVE SAN JOSE CITY PORTIONS BOYNTON AVE CLAYTON RD JACK SENTER RD AND SNELL ROAD 1/18/2012 12:00 AM SyTech Solutions, Inc 2/6/2012 3:25 PM SACLA.0003.0627_0004 3892
20120206152326_001A1F37   CAMDEN AVE CONTRACTS AND AGREEMENTS COST SHARING CAMDEN AVE EXT SAN JOSE CITY VICINITY TRACTS 3785 AND 3786 TO GREYSTONE LANE 1/18/2012 12:00 AM SyTech Solutions, Inc 5/18/2018 2:42 PM SACLA.0003.0627_0004 3893
20120206152326_001A1F26   CONTRACTS AND AGREEMENTS COST SHARING BLOSSOM HILL RD SAN JOSE CITY SIGNALS AND IMPVTS AT INTERSECTION WITH KOOSER RD PEARL AND CAHALAN AVE 1/18/2012 12:00 AM SyTech Solutions, Inc 2/6/2012 3:25 PM SACLA.0003.0627_0004 3894
20120206152326_001A1F27   CONTRACTS AND AGREEMENTS COST SHARING BLOSSOM HILL RD S J CITY AND LOS GATOS TOWN SIGNALS AT HARWOOD RD AND LEIGH AVE 1/18/2012 12:00 AM SyTech Solutions, Inc 2/6/2012 3:25 PM SACLA.0003.0627_0004 3895
20120206152326_001A1F30   CALAVARAS RD CONTRACTS AND AGREEMENTS COST SHARING CALAVERAS ROAD STATE DIV OF HWYS TRAFFIC SIGNALS AND HWY LIGHTIN BTW RT 680 AND RT 237 1/18/2012 12:00 AM SyTech Solutions, Inc 5/18/2018 2:35 PM SACLA.0003.0627_0004 3896
20120206152326_001A1F24   CONTRACTS AND AGREEMENTS COST SHARING BLOSSOM HILL RD SAN JOSE CITY 1/18/2012 12:00 AM SyTech Solutions, Inc 2/6/2012 3:25 PM SACLA.0003.0627_0004 3897
20120206152326_001A1F33   CAMDEN AVE CONTRACTS AND AGREEMENTS COST SHARING CAMDEN AVE SAN JOSE CITY OF LEIGH AVE INTERSECTION 1/18/2012 12:00 AM SyTech Solutions, Inc 5/18/2018 2:42 PM SACLA.0003.0627_0004 3898
20120206152326_001A1F31   CAMDEN AVE CONTRACTS AND AGREEMENTS COST SHARING CAMDEN AVE CAMPBELL CITY OF 1/18/2012 12:00 AM SyTech Solutions, Inc 5/18/2018 2:42 PM SACLA.0003.0627_0004 3899
20120206152326_001A1F35   CAMDEN AVE CONTRACTS AND AGREEMENTS COST SHARING CAMDEN AVE SAN JOSE CITY OF PORTIONS OF CAMDEN AND MERIDIAN AVE 1/18/2012 12:00 AM SyTech Solutions, Inc 5/18/2018 2:42 PM SACLA.0003.0627_0004 3900
20120206152326_001A1F2C   BUBB ROAD CONTRACTS AND AGREEMENTS COST SHARING BUBB ROAD CUPERTINO CITY NEAR VAI AVENUE 1/18/2012 12:00 AM SyTech Solutions, Inc 5/18/2018 2:37 PM SACLA.0003.0627_0004 3901
20120206152326_001A1F2A   CONTRACTS AND AGREEMENTS COST SHARING BRIDGE INSPECTION STATE DEPARTMENT OF TRANSPORTATION 1/18/2012 12:00 AM SyTech Solutions, Inc 2/6/2012 3:25 PM SACLA.0003.0627_0004 3902
20120206152326_001A1F34   CAMDEN AVE CONTRACTS AND AGREEMENTS COST SHARING CAMDEN AVE SAN JOSE CITY OF LEIGH AVE TO ROUTE 17 1/18/2012 12:00 AM SyTech Solutions, Inc 5/18/2018 2:42 PM SACLA.0003.0627_0004 3903
20120206152326_001A1F2B   CONTRACTS AND AGREEMENTS COST SHARING BROKAW ROAD STATE DIV OF HWY PROJ 6 SIGNALS AT BAYSHORE HWY 1/18/2012 12:00 AM SyTech Solutions, Inc 2/6/2012 3:25 PM SACLA.0003.0627_0004 3904
20120206152326_001A1F28   CONTRACTS AND AGREEMENTS COST SHARING BRANHAM LANE/LEIGH AVE SAN JOSE CITY TRAFFIC CONTROL SIGNALS AND CHANNELIZATION 1/18/2012 12:00 AM SyTech Solutions, Inc 2/6/2012 3:25 PM SACLA.0003.0627_0004 3905
20120206152326_001A1F36   CONTRACTS AND AGREEMENTS COST SHARING CAMDEN AVENUE SAN JOSE CITY OF STATE RTE 17 TO LEIGH AVE 1/18/2012 12:00 AM SyTech Solutions, Inc 2/6/2012 3:25 PM SACLA.0003.0627_0004 3906
20120206152326_001A1F2D   BUDD AVE CONTRACTS AND AGREEMENTS COST SHARING BUDD AVENUE CAMPBELL CITY BTW VIRGINIA AVE AND WINCHESTER BLVD 1/18/2012 12:00 AM SyTech Solutions, Inc 5/18/2018 2:37 PM SACLA.0003.0627_0004 3907
20120206152326_001A1F38   CAMPBELL AVE CONTRACTS AND AGREEMENTS COST SHARING CAMPBELL AVE EAST CAMPBELL CITY 1/18/2012 12:00 AM SyTech Solutions, Inc 5/18/2018 2:42 PM SACLA.0003.0627_0004 3908
20120206152326_001A1F39   Capitol Ave CONTRACTS AND AGREEMENTS COST SHARING CAPITOL AVE SAN JOSE CITY OF ALUM ROCK AVE TO MCKEE RD 1/18/2012 12:00 AM SyTech Solutions, Inc 5/18/2018 2:14 PM SACLA.0003.0627_0004 3909
20120206152326_001A1F44   CONTRACTS AND AGREEMENTS COST SHARING CAPITOL EXPWY SAN JOSE CITY ACQUISITION OF R/W 1/18/2012 12:00 AM SyTech Solutions, Inc 2/6/2012 3:25 PM SACLA.0003.0627_0004 3910
20120206152326_001A1F40   CONTRACTS AND AGREEMENTS COST SHARING CAPITOL EXPWY SAN JOSE CITY BTW SENTER RD AND ABORN RD 1/18/2012 12:00 AM SyTech Solutions, Inc 2/6/2012 3:25 PM SACLA.0003.0627_0004 3911
20120206152326_001A1F42   CONTRACTS AND AGREEMENTS COST SHARING CAPITOL EXPWY LYON WM DEVELOPMENT CO FENCE ALONG EXPRESSWAY 1/18/2012 12:00 AM SyTech Solutions, Inc 2/6/2012 3:25 PM SACLA.0003.0627_0004 3912
20120206152326_001A1F4A   CONTRACTS AND AGREEMENTS COST SHARING CAPITOL AVENUE STATE DIV OF HWYS COUNTY STATE AGMT 17 FAS BTW MCKEE ROAD AND BERRYESSA ROAD 1/18/2012 12:00 AM SyTech Solutions, Inc 2/6/2012 3:25 PM SACLA.0003.0627_0004 3913
20120206152326_001A1F46   CONTRACTS AND AGREEMENTS COST SHARING CAPITOL EXPWY SCC FLOOD CONTROL AND WATER DIST CULVERT SILVER CREEK CROSSING AT BAMBI LANE 1/18/2012 12:00 AM SyTech Solutions, Inc 2/6/2012 3:25 PM SACLA.0003.0627_0004 3914
20120206152326_001A1F41   CONTRACTS AND AGREEMENTS COST SHARING CAPITOL EXPWY SAN JOSE CITY BTW ALMADEN EXPWY AND SENTER ROAD 1/18/2012 12:00 AM SyTech Solutions, Inc 2/6/2012 3:25 PM SACLA.0003.0627_0004 3915
20120206152326_001A1F47   CONTRACTS AND AGREEMENTS COST SHARING CAPITOL EXPWY SC CO FLOOD CONTROL AND WATER DIST IMPVT OF THOMPSON CRK AND SILVER CRK 1/18/2012 12:00 AM SyTech Solutions, Inc 2/6/2012 3:25 PM SACLA.0003.0627_0004 3916
20120206152326_001A1F43   CONTRACTS AND AGREEMENTS COST SHARING CAPITOL EXPWY SOUTHERN PACIFIC COMPANY OVERPASS AT MONTEREY HWY 1/18/2012 12:00 AM SyTech Solutions, Inc 2/6/2012 3:25 PM SACLA.0003.0627_0004 3917
20120206152326_001A1F3A   Capitol Ave AGREEMENT BETWEEN THE CITY OF SAN JOSE AND THE COUNTY OF SANTA CLARA FOR THE CONSTRUCTION OF ULTIMATE IMPROVEMENTS ON CAPITOL AVENUE BETWEEN- ALUM ROCK AVENUE AND MC KEE ROAD 1/18/2012 12:00 AM SyTech Solutions, Inc 5/18/2018 2:14 PM SACLA.0003.0627_0004 3918
20120206152326_001A1F3C   CONTRACTS AND AGREEMENTS COST SHARING CAPITOL AVE AND PENITENCIA SAN JOSE CITY TRAFFIC SIGNALS AND CHANNELIZATION 1/18/2012 12:00 AM SyTech Solutions, Inc 2/6/2012 3:25 PM SACLA.0003.0627_0004 3919
20120206152326_001A1F3F   CONTRACTS AND AGREEMENTS COST SHARING CAPITOL EXPWY SAN JOSE CITY MCLAUGHLIN AVE CONNECTION 1/18/2012 12:00 AM SyTech Solutions, Inc 2/6/2012 3:25 PM SACLA.0003.0627_0004 3920
20120206152326_001A1F3D   CONTRACTS AND AGREEMENTS COST SHARING CAPITOL EXPWY SAN JOSE CITY OF CONNECTION AND SIGNALIZATION AT NIEMAN BLVD 1/18/2012 12:00 AM SyTech Solutions, Inc 2/6/2012 3:25 PM SACLA.0003.0627_0004 3921
20120206152326_001A1F3E   CONTRACTS AND AGREEMENTS COST SHARING CAPITOL EXPRWY SAN JOSE CITY TULLY INTERSECTION 1/18/2012 12:00 AM SyTech Solutions, Inc 2/6/2012 3:25 PM SACLA.0003.0627_0004 3922
20120206152326_001A1F4C   CAPITOL EXPWY CONTRACTS AND AGREEMENTS COST SHARING CAPITOL EXPWY STATE DIV OF HWYS CO STATE AGMT 26 FAS S-1015 (4) ALMADEN EXPWY AND NARVAES RD 1/18/2012 12:00 AM SyTech Solutions, Inc 5/18/2018 2:43 PM SACLA.0003.0627_0004 3923
20120206152326_001A1F3B   CAPITOL AVE CONTRACTS AND AGREEMENTS COST SHARING CAPITOL AVENUE SAN JOSE CITY BTW 150 N OF ALUM ROCK AVE AND WESTBORO DRIVE 1/18/2012 12:00 AM SyTech Solutions, Inc 5/18/2018 2:43 PM SACLA.0003.0627_0004 3924
20120206152326_001A1F45   CONTRACTS AND AGREEMENTS COST SHARING CAPITOL EXPWY SAN JOSE CITY AND STATE DIV HWY FAS AGMT UE 69-3 BTW GUADALUPE RIVER AND RT 101 1/18/2012 12:00 AM SyTech Solutions, Inc 2/6/2012 3:25 PM SACLA.0003.0627_0004 3925
20120206152326_001A1F4B   CONTRACTS AND AGREEMENTS COST SHARING CAPITOL EXPWY STATE DIV OF HWY CO STATE AGMT 24 FAS S-1015 (3) TUERS ROAD AND ABORN ROAD 1/18/2012 12:00 AM SyTech Solutions, Inc 2/6/2012 3:25 PM SACLA.0003.0627_0004 3926
20120206152326_001A1F48   CONTRACTS AND AGREEMENTS COST SHARING CAPITOL EXPWY STATE DIV OF HWY ACQ OF PARCELS 32208-32209 32211 1/18/2012 12:00 AM SyTech Solutions, Inc 2/6/2012 3:25 PM SACLA.0003.0627_0004 3927
20120206152326_001A1F4D   CAPITOL EXPWY CONTRACTS AND AGREEMENTS COST SHARING CAPITOL EXPWY STATE DIV OF HWYS CO STATE AGMT UE-64-1 FAS 1015 UE-1 SENTER ROAD AND TUERS ROAD 1/18/2012 12:00 AM SyTech Solutions, Inc 5/18/2018 2:43 PM SACLA.0003.0627_0004 3928
20120206152326_001A1F49   CONTRACTS AND AGREEMENTS COST SHARING CAPITOL AVENUE STATE DIV OF HWYS COUNTY STATE AGMT 14 FAS BTW HIGHWOOD DRIVE AND STORY ROAD 1/18/2012 12:00 AM SyTech Solutions, Inc 2/6/2012 3:25 PM SACLA.0003.0627_0004 3929
20120206152326_001A1F51   CARMEL ST CONTRACTS AND AGREEMENTS COST SHARING CARMEL STREET GILROY CITY FIRST STREET TO FIFTH STREET 1/18/2012 12:00 AM SyTech Solutions, Inc 5/18/2018 2:44 PM SACLA.0003.0627_0004 3930
20120206152326_001A1F55   CENTRAL EXPWY CONTRACTS AND AGREEMENTS COST SHARING CENTRAL EXPRESSWAY MOUNTAIN VIEW CITY OF FIRE PREEMPTION EQUIPMENT 1/18/2012 12:00 AM SyTech Solutions, Inc 5/18/2018 2:45 PM SACLA.0003.0627_0004 3931
20120206152326_001A1F5D   CONTRACTS AND AGREEMENTS COST SHARING CENTRAL EXPWY SUNNYVALE CITY BTW BERNARDO AVE AND 1200 E OF COMMERCIAL AVE 1/18/2012 12:00 AM SyTech Solutions, Inc 2/6/2012 3:26 PM SACLA.0003.0627_0004 3932
20120206152326_001A1F52   CASTRO ST CONTRACTS AND AGREEMENTS COST SHARING CASTRO STREET MT VIEW CITY CASTRO MIRAMONTE STREET INTERSECTION 1/18/2012 12:00 AM SyTech Solutions, Inc 5/18/2018 2:44 PM SACLA.0003.0627_0004 3933
20120206152326_001A1F54   CENTRAL EXPWY CONTRACTS AND AGREEMENTS COST SHARING CENTRAL EXPWY MOUNTAIN VIEW CITY STORM DRAIN EXT AND WATER MAIN EXT 1/18/2012 12:00 AM SyTech Solutions, Inc 5/18/2018 2:45 PM SACLA.0003.0627_0004 3934
20120206152326_001A1F5C   CONTRACTS AND AGREEMENTS COST SHARING CENTRAL EXPWY SUNNYVALE CITY BERNARDO AVE TO COMMERCIAL AVE 1/18/2012 12:00 AM SyTech Solutions, Inc 2/6/2012 3:26 PM SACLA.0003.0627_0004 3935
20120206152326_001A1F59   CENTRAL EXPWY CONTRACTS AND AGREEMENTS COST SHARING CENTRAL EXPWY STATE DIV OF HWYS KIFER ROAD UNDERPASS 1/18/2012 12:00 AM SyTech Solutions, Inc 5/18/2018 2:46 PM SACLA.0003.0627_0004 3936
20120206152326_001A1F5B   CENTRAL EXPWY CONTRACTS AND AGREEMENTS COST SHARING CENTRAL EXPWY SUNNYVALE CITY COMMERCIAL AVE TO CALABAZAS CRK IMPVT TO STORM DRAIN AND SEWERS 1/18/2012 12:00 AM SyTech Solutions, Inc 5/18/2018 2:46 PM SACLA.0003.0627_0004 3937
20120206152326_001A1F60   CONTRACTS AND AGREEMENTS COST SHARING CUNNINGHAM AVE ETC SAN JOSE CITY EAST CAPITOL EXPWY TO WHITE ROAD 1/18/2012 12:00 AM SyTech Solutions, Inc 2/6/2012 3:26 PM SACLA.0003.0627_0004 3938
20120206152326_001A1F5E   CONTRACTS AND AGREEMENTS COST SHARING COCHRANE BRIDGE STATE DEPT OF TRANSPORTATION DUNNE AVENUE AT ANDERSON LAKE COYOTE CIR 1/18/2012 12:00 AM SyTech Solutions, Inc 2/16/2012 9:58 AM SACLA.0003.0627_0004 3939
20120206152326_001A1F4F   CAPITOL EXPWY CONTRACTS AND AGREEMENTS COST SHARING CAPITOL EXPWY STATE DIV OF HWYS AND SAN JOSE CITY AGMT UE-69-12 FAS PROJ 1015-3 UN IV BTW 0.1 MI S OF STORY RD AND RT 680 1/18/2012 12:00 AM SyTech Solutions, Inc 5/18/2018 2:44 PM SACLA.0003.0627_0004 3940
20120206152326_001A1F56   CENTRAL EXPWY CONTRACTS AND AGREEMENTS COST SHARING CENTRAL EXPWY MOUNTAIN VIEW CITY OF NORTH SHORELINE BLVD 1/18/2012 12:00 AM SyTech Solutions, Inc 5/18/2018 2:45 PM SACLA.0003.0627_0004 3941
20120206152326_001A1F5F   CONTRACTS AND AGREEMENTS COST SHARING CLAYTON ROAD SAN JOSE CITY STORY ROAD TO MT PLEASANT ROAD 1/18/2012 12:00 AM SyTech Solutions, Inc 2/6/2012 3:26 PM SACLA.0003.0627_0004 3942
20120206152326_001A1F58   CENTRAL EXPWY CONTRACTS AND AGREEMENTS COST SHARING CENTRAL EXPWY SANTA CLARA CITY COMMERCIAL AVE TO CALABAZAS CRK IMPVT TO STORM DRAIN AND SEWERS 1/18/2012 12:00 AM SyTech Solutions, Inc 5/18/2018 2:46 PM SACLA.0003.0627_0004 3943
20120206152326_001A1F50   CAPITOL AVE CONTRACTS AND AGREEMENTS COST SHARING CAPITOL AVENUE STATE DIV OF HWY SIGNALS ON ALUM ROCK AV AT KING RD AND AT CAPITOL AVE 1/18/2012 12:00 AM SyTech Solutions, Inc 5/18/2018 2:44 PM SACLA.0003.0627_0004 3944
20120206152326_001A1F57   CENTRAL EXPWY CONTRACTS AND AGREEMENTS COST SHARING CENTRAL EXPWY MOUNTAIN VIEW CITY WHISMAN ROAD OVERCROSSING 1/18/2012 12:00 AM SyTech Solutions, Inc 5/18/2018 2:45 PM SACLA.0003.0627_0004 3945
20120206152326_001A1F5A   CENTRAL EXPWY CONTRACTS AND AGREEMENTS COST SHARING CENTRAL EXPWY STATE DIV OF HWYS GRADE SEPARATION AT BAILEY AVE OVER SO PACIFIC RR TRACKS 1/18/2012 12:00 AM SyTech Solutions, Inc 5/18/2018 2:46 PM SACLA.0003.0627_0004 3946
20120206152326_001A1F53   CENTRAL EXPWY CONTRACTS AND AGREEMENTS COST SHARING CENTRAL EXPWY LOS ALTOS HILLS TOWN NON EXPRESSWAY ALLOCATION TO TOWN 1/18/2012 12:00 AM SyTech Solutions, Inc 5/18/2018 2:44 PM SACLA.0003.0627_0004 3947
20120206152326_001A1F4E   CONTRACTS AND AGREEMENTS COST SHARING CAPITOL EXPWY STATE DIV OF HWY CO STATE AGMT EU 65-6 FAS UE 1015-2 NARVAEZ ROAD AND SENTER ROAD 1/18/2012 12:00 AM SyTech Solutions, Inc 2/6/2012 3:26 PM SACLA.0003.0627_0004 3948
20120206152326_001A298D   LAWRENCE EXPRESSWAY 2676 LEFT TURN LANE EXTENSIONS VARIOUS LOCATIONS 1/18/2012 12:00 AM SyTech Solutions, Inc 2/6/2012 3:24 PM SACLA.0003.0627_0003 3949
20120206152326_001A2233   STATE HIGHWAYS ROUTE 237 TRAFFIC PROOF FILL PROJECT UNSUCCESSFUL BIDDERS 1/18/2012 12:00 AM SyTech Solutions, Inc 2/6/2012 3:23 PM SACLA.0003.0627_0001 3950
20120206152326_001A298C   LAWRENCE EXPRESSWAY 2676 LANDSCAPING AT EL CAMINO REAL AND MISC PLANTING 1/18/2012 12:00 AM SyTech Solutions, Inc 2/6/2012 3:24 PM SACLA.0003.0627_0003 3951
20120206152326_001A222A   STATE HIGHWAYS ROUTE 101 CONDEMNATION ACTIONS 2 YRS AND DESTROY 1/18/2012 12:00 AM SyTech Solutions, Inc 2/6/2012 3:23 PM SACLA.0003.0627_0001 3952
20120206152326_001A2237   STATE HIGHWAYS ROUTE 280 1963-1966 1/18/2012 12:00 AM SyTech Solutions, Inc 2/6/2012 3:24 PM SACLA.0003.0627_0001 3953
20120206152326_001A2231   STATE HIGHWAYS ROUTE 237 TRAFFIC PROOF FILL PROJECT OLIVER DE SILVA INC 1988 1/18/2012 12:00 AM SyTech Solutions, Inc 2/6/2012 3:23 PM SACLA.0003.0627_0001 3954
20120206152326_001A298E   LAWRENCE EXPRESSWAY 2676 NORTHLAWN DR TO RTE 280 DESIGN CONCEPT 1/18/2012 12:00 AM SyTech Solutions, Inc 2/6/2012 3:24 PM SACLA.0003.0627_0003 3955
20120206152326_001A222B   STATE HIGHWAYS ROUTE 101 PENINSULA RTE 101 STUDY 1/18/2012 12:00 AM SyTech Solutions, Inc 2/6/2012 3:23 PM SACLA.0003.0627_0001 3956
20120206152326_001A2988   LAWRENCE EXPRESSWAY 2676 BAYSHORE FWY TO SARATOGA AVE WIDEN TO 6 LANES 1/18/2012 12:00 AM SyTech Solutions, Inc 2/6/2012 3:24 PM SACLA.0003.0627_0003 3957
20120206152326_001A222C   STATE HIGHWAYS ROUTE 130 GENERAL 1/18/2012 12:00 AM SyTech Solutions, Inc 2/6/2012 3:23 PM SACLA.0003.0627_0001 3958
20120206152326_001A298F   LAWRENCE EXPRESSWAY 2676 PEDESTRIAN OVERCROSSING LAKEDALE AVE BLAZINGWOOD DR 1/18/2012 12:00 AM SyTech Solutions, Inc 2/6/2012 3:25 PM SACLA.0003.0627_0003 3959
20120206152326_001A2986   LAWRENCE EXPRESSWAY 2676 COMMUTER LANES PROJECT 1/18/2012 12:00 AM SyTech Solutions, Inc 2/6/2012 3:24 PM SACLA.0003.0627_0003 3960
20120206152326_001A222F   STATE HIGHWAYS ROUTE 237 1966 1/18/2012 12:00 AM SyTech Solutions, Inc 2/6/2012 3:23 PM SACLA.0003.0627_0001 3961
20120206152326_001A2235   STATE HIGHWAYS ROUTE 280 1962 AND PRIOR 1/18/2012 12:00 AM SyTech Solutions, Inc 2/6/2012 3:23 PM SACLA.0003.0627_0001 3962
20120206152326_001A222E   STATE HIGHWAYS ROUTE 152 GENERAL 1/18/2012 12:00 AM SyTech Solutions, Inc 2/6/2012 3:23 PM SACLA.0003.0627_0001 3963
20120206152326_001A2230   STATE HIGHWAYS ROUTE 237 1965 AND PRIOR 1/18/2012 12:00 AM SyTech Solutions, Inc 2/6/2012 3:23 PM SACLA.0003.0627_0001 3964
20120206152326_001A2989   LAWRENCE EXPWY 2676 SUNNYVALE SPRR OVERHEAD SEISMIC RETROFIT AND WIDENING 1/18/2012 12:00 AM SyTech Solutions, Inc 2/6/2012 3:24 PM SACLA.0003.0627_0003 3965
20120206152326_001A2234   Hwy 280 Sound wall  on route 280, 15 locations, Includes reso's and deeds ROUTE 280 1967 1/18/2012 12:00 AM SyTech Solutions, Inc 8/9/2018 10:15 AM SACLA.0003.0627_0001 3966
20120206152326_001A2226   STATE HIGHWAYS ROUTE 101 COCHRAN ROAD TO FORD ROAD PUBLIC HEARING 1/18/2012 12:00 AM SyTech Solutions, Inc 2/6/2012 3:23 PM SACLA.0003.0627_0001 3967
20120206152326_001A2993   LAWRENCE EXPRESSWAY 2676 PERMITS RIGHT OF ENTRY SOUTHERN PACIFIC CO 1/18/2012 12:00 AM SyTech Solutions, Inc 2/6/2012 3:25 PM SACLA.0003.0627_0003 3968
20120206152326_001A29A4   LAWRENCE EXPRESSWAY 2676 PERMITS LANDSCAPING FRANCISCAN BUILDERS INC 1/18/2012 12:00 AM SyTech Solutions, Inc 2/6/2012 3:25 PM SACLA.0003.0627_0003 3969
20120206152326_001A29A8   LAWRENCE EXPRESSWAY 2676 PERMITS RIGHT OF ENTRY SAN JOSE CITY 1/18/2012 12:00 AM SyTech Solutions, Inc 2/6/2012 3:25 PM SACLA.0003.0627_0003 3970
20120206152326_001A29A5   LAWRENCE EXPRESSWAY 2676 PERMITS GRANT OF EASEMENT PACIFIC GAS AND ELECTRIC CO 1/18/2012 12:00 AM SyTech Solutions, Inc 2/6/2012 3:25 PM SACLA.0003.0627_0003 3971
20120206152326_001A29A2   LAWRENCE EXPRESSWAY 2676 PERMITS ENCROACHMENT CUPERTINO SANITARY DIST 1/18/2012 12:00 AM SyTech Solutions, Inc 2/6/2012 3:25 PM SACLA.0003.0627_0003 3972
20120206152326_001A299F   LAWRENCE EXPRESSWAY 2676 PERMITS EASEMENT GRANT PACIFIC GAS AND ELECTRIC CO 1/18/2012 12:00 AM SyTech Solutions, Inc 2/6/2012 3:25 PM SACLA.0003.0627_0003 3973
20120206152326_001A299D   LAWRENCE EXPRESSWAY 2676 PERMITS EASEMENT GRANT PACIFIC GAS AND ELECTRIC CO 1/18/2012 12:00 AM SyTech Solutions, Inc 2/6/2012 3:25 PM SACLA.0003.0627_0003 3974
20120206152326_001A2999   LAWRENCE EXPRESSWAY 2676 RESURFACING PROSPECT RD TO HWY 280 1/18/2012 12:00 AM SyTech Solutions, Inc 2/6/2012 3:25 PM SACLA.0003.0627_0003 3975
20120206152326_001A299B   LAWRENCE EXPRESSWAY 2676 STEVENS CREEK BLVD SEP SEISMIC SAFETY IMPVMT 1/18/2012 12:00 AM SyTech Solutions, Inc 2/6/2012 3:25 PM SACLA.0003.0627_0003 3976
20120206152326_001A2994   LAWRENCE EXPRESSWAY 2676 EXCESS PROPERTY SALE OF UNSUCCESSFUL BIDS 1/18/2012 12:00 AM SyTech Solutions, Inc 2/6/2012 3:25 PM SACLA.0003.0627_0003 3977
20120206152326_001A29A3   LAWRENCE EXPRESSWAY 2676 PERMITS LANDSCAPING BIRTCHER PACIFIC 1/18/2012 12:00 AM SyTech Solutions, Inc 2/6/2012 3:25 PM SACLA.0003.0627_0003 3978
20120206152326_001A29A9   LAWRENCE EXPRESSWAY 2676 RIGHTS OF WAY A 1/18/2012 12:00 AM SyTech Solutions, Inc 2/6/2012 3:25 PM SACLA.0003.0627_0003 3979
20120206152326_001A2996   LAWRENCE EXPRESSWAY 2676 PARK PROPOSAL 1/18/2012 12:00 AM SyTech Solutions, Inc 2/6/2012 3:25 PM SACLA.0003.0627_0003 3980
20120206152326_001A299C   LAWRENCE EXPWY 2676 SUNNYVALE SPRR BRIDGE WIDENING 1/18/2012 12:00 AM SyTech Solutions, Inc 2/6/2012 3:25 PM SACLA.0003.0627_0003 3981
20120206152326_001A2997   LAWRENCE EXPRESSWAY EQUIPMENT RENTAL FOR APPROACH GRADING 2676 BELLICITTI AND PELLICCIOTTI CONTRACTOR 315 1/18/2012 12:00 AM SyTech Solutions, Inc 2/6/2012 3:25 PM SACLA.0003.0627_0003 3982
20120206152326_001A29A1   LAWRENCE EXPRESSWAY 2676 PERMITS EASEMENT GRANT SAN JOSE CITY 1/18/2012 12:00 AM SyTech Solutions, Inc 2/6/2012 3:25 PM SACLA.0003.0627_0003 3983
20120206152326_001A2992   LAWRENCE EXPRESSWAY 2676 NORTHLAWN DR TO RTE 280 PROPOSED WIDENING 1/18/2012 12:00 AM SyTech Solutions, Inc 2/6/2012 3:25 PM SACLA.0003.0627_0003 3984
20120206152326_001A29AA   LAWRENCE EXPRESSWAY 2676 RIGHTS OF WAY BA-BOQ 1/18/2012 12:00 AM SyTech Solutions, Inc 2/6/2012 3:25 PM SACLA.0003.0627_0003 3985
20120206152326_001A29AB   LAWRENCE EXPRESSWAY 2676 RIGHTS OF WAY BOR-BZ 1/18/2012 12:00 AM SyTech Solutions, Inc 2/6/2012 3:25 PM SACLA.0003.0627_0003 3986
20120206155018_001A1AD0   PRIVATE A-C 1/18/2012 12:00 AM SyTech Solutions, Inc 2/6/2012 3:53 PM SACLA.0003.0627_0009 3987
20120206155018_001A1ADA   PRIVATE SUBJECT TO VEHICLE CODE/JEANIE LANE 1/18/2012 12:00 AM SyTech Solutions, Inc 2/6/2012 3:53 PM SACLA.0003.0627_0009 3988
20120206155018_001A1AD4   PRIVATE SUBJECT TO VEHICLE CODE/GENERAL 1/18/2012 12:00 AM SyTech Solutions, Inc 2/6/2012 3:53 PM SACLA.0003.0627_0009 3989
20120206155018_001A1AD6   PRIVATE SUBJECT TO VEHICLE CODE ALDERCROFT HEIGHTS 1/18/2012 12:00 AM SyTech Solutions, Inc 2/6/2012 3:53 PM SACLA.0003.0627_0009 3990
20120206155018_001A1AD1   PRIVATE D-L 1/18/2012 12:00 AM SyTech Solutions, Inc 2/6/2012 3:53 PM SACLA.0003.0627_0009 3991
20120206155018_001A1AD3   PRIVATE T-Z 1/18/2012 12:00 AM SyTech Solutions, Inc 2/6/2012 3:53 PM SACLA.0003.0627_0009 3992
20120206155018_001A1ACE   NAMING AND NAME CHANGES PROCEEDING ABANDONED 1/18/2012 12:00 AM SyTech Solutions, Inc 2/6/2012 3:53 PM SACLA.0003.0627_0009 3993
20120206155018_001A1AD9   PRIVATE TO VEHICLE CODE/GARCAL DRIVE 1/18/2012 12:00 AM SyTech Solutions, Inc 2/6/2012 3:53 PM SACLA.0003.0627_0009 3994
20120206155018_001A1AD2   PRIVATE M-S 1/18/2012 12:00 AM SyTech Solutions, Inc 2/6/2012 3:53 PM SACLA.0003.0627_0009 3995
20120206155018_001A1AD7   PRIVATE SUBJECT TO VEHICLE CODE/CHEMEKETA PARK 1/18/2012 12:00 AM SyTech Solutions, Inc 2/6/2012 3:53 PM SACLA.0003.0627_0009 3996
20120206155018_001A1ADB   PRIVATE SUBJECT TO VEHICLE CODE/KING GEORGE COURT 1/18/2012 12:00 AM SyTech Solutions, Inc 2/6/2012 3:53 PM SACLA.0003.0627_0009 3997
20120206155018_001A1ADF   PRIVATE SUBJECT TO VEHICLE CODE/PARRISH VIEW AND JEFFERSON DR 1/18/2012 12:00 AM SyTech Solutions, Inc 2/6/2012 3:53 PM SACLA.0003.0627_0009 3998
20120206155018_001A1AE4   SIGNS DIRECTIONAL TO ADOBE CREEK LODGE 1/18/2012 12:00 AM SyTech Solutions, Inc 2/6/2012 3:53 PM SACLA.0003.0627_0009 3999
20120206155018_001A1AE0   PRIVATE SUBJECT TO VEHICLE CODE/SKY OAKS WAY 1/18/2012 12:00 AM SyTech Solutions, Inc 2/6/2012 3:53 PM SACLA.0003.0627_0009 4000
20120206155018_001A1AE5   SIGNS HOSPITAL EMERGENCY ROOMS 1/18/2012 12:00 AM SyTech Solutions, Inc 2/6/2012 3:53 PM SACLA.0003.0627_0009 4001
20120206155018_001A1ADD   PRIVATE SUBJECT TO VEHICLE CODE/LAKE CANYON MUTUAL WATER CO 1/18/2012 12:00 AM SyTech Solutions, Inc 2/6/2012 3:53 PM SACLA.0003.0627_0009 4002
20120206155018_001A1AE7   STATE HIGHWAYS/GENERAL/1958 THRU 1959 1/18/2012 12:00 AM SyTech Solutions, Inc 2/6/2012 3:53 PM SACLA.0003.0627_0009 4003
20120206155018_001A1AEC   STATE HIGHWAYS/GENERAL/1960 1/18/2012 12:00 AM SyTech Solutions, Inc 2/6/2012 3:54 PM SACLA.0003.0627_0009 4004
20120206155018_001A1AED   STATE HIGHWAYS ROUTE 5/GENERAL 1/18/2012 12:00 AM SyTech Solutions, Inc 2/6/2012 3:54 PM SACLA.0003.0627_0009 4005
20120206155018_001A1AEE   STATE HIGHWAYS ROUTE 9/LOS GATOS SARATOGA RD/GENERAL 1/18/2012 12:00 AM SyTech Solutions, Inc 2/6/2012 3:54 PM SACLA.0003.0627_0009 4006
20120206155018_001A1AE3   SELECT SYSTEM 1/18/2012 12:00 AM SyTech Solutions, Inc 2/6/2012 3:53 PM SACLA.0003.0627_0009 4007
20120206155018_001A1AEB   STATE HIGHWAYS/GENERAL/1961-1971 1/18/2012 12:00 AM SyTech Solutions, Inc 2/6/2012 3:54 PM SACLA.0003.0627_0009 4008
20120206155018_001A1AE1   SIGNS GENERAL 1/18/2012 12:00 AM SyTech Solutions, Inc 2/6/2012 3:53 PM SACLA.0003.0627_0009 4009
20120206155018_001A1AE6   STATE HIGHWAYS SCENIC 1/18/2012 12:00 AM SyTech Solutions, Inc 2/6/2012 3:53 PM SACLA.0003.0627_0009 4010
20120206155018_001A1AE9   STATE HIGHWAYS/GENERAL/1957 AND PRIOR 1/18/2012 12:00 AM SyTech Solutions, Inc 2/6/2012 3:54 PM SACLA.0003.0627_0009 4011
20120206155018_001A1BA3   CONTRACTS AND AGREEMENTS COST SHARING STEVENS CRK BLVD CUPERTINO CITY IMPVT AND ACQ OF PROPERTY BERTHA CRAFT 1/18/2012 12:00 AM SyTech Solutions, Inc 2/6/2012 3:50 PM SACLA.0003.0627_0007 4012
20120206155018_001A1B9E   CONTRACTS AND AGREEMENTS COST SHARING STEVENS CANYON RD STATE DIV OF HWY 1/18/2012 12:00 AM SyTech Solutions, Inc 2/6/2012 3:50 PM SACLA.0003.0627_0007 4013
20120206155018_001A1BA5   CONTRACTS AND AGREEMENTS COST SHARING STEVENS CRK BLVD CUPERTINO CITY OF TRAFFIC SIGNALS AT TANTAU AVE 1/18/2012 12:00 AM SyTech Solutions, Inc 2/6/2012 3:50 PM SACLA.0003.0627_0007 4014
20120206155018_001A1BA1   CONTRACTS AND AGREEMENTS COST SHARING STEVENS CREEK BLVD AND BUBB RD/PENINSULA BLVD CUPERTINO CITY OF TRAFFIC SIGNAL AND HIGHWAY LIGHTING INSTALLATION 1/18/2012 12:00 AM SyTech Solutions, Inc 2/6/2012 3:50 PM SACLA.0003.0627_0007 4015
20120206155018_001A1BA6   CONTRACTS AND AGREEMENTS COST SHARING STEVENS CREEK BLVD CUPERTINO CITY OF VICINTY OF PHARLAP DRIVE 1/18/2012 12:00 AM SyTech Solutions, Inc 2/6/2012 3:50 PM SACLA.0003.0627_0007 4016
20120206155018_001A1BA8   CONTRACTS AND AGREEMENTS COST SHARING STEVENS CRK BLVD SAN JOSE CITY SIGNALS AT BELLEROSE DRIVE 1/18/2012 12:00 AM SyTech Solutions, Inc 2/6/2012 3:50 PM SACLA.0003.0627_0007 4017
1 - 300 Next

©2021 County of Santa Clara. All rights reserved.